sensor_id;sensor_type;location;lat;lon;timestamp;P1;durP1;ratioP1;P2;durP2;ratioP2
14377;SDS011;7272;53.668;9.578;2023-03-31T00:01:10;12.03;;;5.67;;
14377;SDS011;7272;53.668;9.578;2023-03-31T00:04:12;14.93;;;5.70;;
14377;SDS011;7272;53.668;9.578;2023-03-31T00:07:14;10.53;;;4.90;;
14377;SDS011;7272;53.668;9.578;2023-03-31T00:10:16;15.43;;;5.47;;
14377;SDS011;7272;53.668;9.578;2023-03-31T00:13:18;17.40;;;5.40;;
14377;SDS011;7272;53.668;9.578;2023-03-31T00:16:21;12.40;;;6.23;;
14377;SDS011;7272;53.668;9.578;2023-03-31T00:19:24;13.57;;;5.40;;
14377;SDS011;7272;53.668;9.578;2023-03-31T00:22:28;16.37;;;5.90;;
14377;SDS011;7272;53.668;9.578;2023-03-31T00:25:30;13.40;;;4.93;;
14377;SDS011;7272;53.668;9.578;2023-03-31T00:28:32;13.83;;;5.73;;
14377;SDS011;7272;53.668;9.578;2023-03-31T00:31:35;11.33;;;4.40;;
14377;SDS011;7272;53.668;9.578;2023-03-31T00:34:38;12.27;;;5.20;;
14377;SDS011;7272;53.668;9.578;2023-03-31T00:37:40;15.20;;;5.27;;
14377;SDS011;7272;53.668;9.578;2023-03-31T00:40:45;11.33;;;5.00;;
14377;SDS011;7272;53.668;9.578;2023-03-31T00:44:07;11.50;;;5.10;;
14377;SDS011;7272;53.668;9.578;2023-03-31T00:47:14;11.87;;;5.23;;
14377;SDS011;7272;53.668;9.578;2023-03-31T00:50:21;9.07;;;4.37;;
14377;SDS011;7272;53.668;9.578;2023-03-31T00:53:25;10.77;;;4.57;;
14377;SDS011;7272;53.668;9.578;2023-03-31T00:56:31;15.27;;;4.87;;
14377;SDS011;7272;53.668;9.578;2023-03-31T00:59:37;12.43;;;5.88;;
14377;SDS011;7272;53.668;9.578;2023-03-31T01:02:45;11.50;;;4.87;;
14377;SDS011;7272;53.668;9.578;2023-03-31T01:05:53;9.67;;;5.17;;
14377;SDS011;7272;53.668;9.578;2023-03-31T01:08:59;8.50;;;4.47;;
14377;SDS011;7272;53.668;9.578;2023-03-31T01:12:06;12.20;;;5.27;;
14377;SDS011;7272;53.668;9.578;2023-03-31T01:15:11;10.97;;;4.50;;
14377;SDS011;7272;53.668;9.578;2023-03-31T01:18:14;11.60;;;4.53;;
14377;SDS011;7272;53.668;9.578;2023-03-31T01:21:34;13.10;;;5.07;;
14377;SDS011;7272;53.668;9.578;2023-03-31T01:25:05;13.30;;;5.20;;
14377;SDS011;7272;53.668;9.578;2023-03-31T01:28:32;12.03;;;4.43;;
14377;SDS011;7272;53.668;9.578;2023-03-31T01:31:48;12.93;;;4.50;;
14377;SDS011;7272;53.668;9.578;2023-03-31T01:35:30;13.43;;;4.40;;
14377;SDS011;7272;53.668;9.578;2023-03-31T01:38:51;11.82;;;4.97;;
14377;SDS011;7272;53.668;9.578;2023-03-31T01:42:17;13.10;;;5.57;;
14377;SDS011;7272;53.668;9.578;2023-03-31T01:45:27;10.77;;;4.43;;
14377;SDS011;7272;53.668;9.578;2023-03-31T01:48:40;10.10;;;4.77;;
14377;SDS011;7272;53.668;9.578;2023-03-31T01:51:54;9.50;;;3.90;;
14377;SDS011;7272;53.668;9.578;2023-03-31T01:55:03;10.57;;;4.50;;
14377;SDS011;7272;53.668;9.578;2023-03-31T01:58:12;8.63;;;4.70;;
14377;SDS011;7272;53.668;9.578;2023-03-31T02:01:18;12.63;;;4.70;;
14377;SDS011;7272;53.668;9.578;2023-03-31T02:04:26;10.50;;;4.30;;
14377;SDS011;7272;53.668;9.578;2023-03-31T02:07:33;13.43;;;4.43;;
14377;SDS011;7272;53.668;9.578;2023-03-31T02:10:37;11.30;;;4.60;;
14377;SDS011;7272;53.668;9.578;2023-03-31T02:13:43;9.00;;;4.53;;
14377;SDS011;7272;53.668;9.578;2023-03-31T02:16:48;9.83;;;4.40;;
14377;SDS011;7272;53.668;9.578;2023-03-31T02:19:58;11.93;;;4.63;;
14377;SDS011;7272;53.668;9.578;2023-03-31T02:23:05;10.63;;;5.40;;
14377;SDS011;7272;53.668;9.578;2023-03-31T02:26:08;11.00;;;5.75;;
14377;SDS011;7272;53.668;9.578;2023-03-31T02:29:14;10.30;;;4.73;;
14377;SDS011;7272;53.668;9.578;2023-03-31T02:32:18;12.17;;;4.27;;
14377;SDS011;7272;53.668;9.578;2023-03-31T02:35:26;9.10;;;4.60;;
14377;SDS011;7272;53.668;9.578;2023-03-31T02:38:30;11.57;;;4.70;;
14377;SDS011;7272;53.668;9.578;2023-03-31T02:41:38;10.97;;;4.60;;
14377;SDS011;7272;53.668;9.578;2023-03-31T02:44:42;14.00;;;5.10;;
14377;SDS011;7272;53.668;9.578;2023-03-31T02:47:44;10.67;;;4.60;;
14377;SDS011;7272;53.668;9.578;2023-03-31T02:51:00;10.10;;;4.40;;
14377;SDS011;7272;53.668;9.578;2023-03-31T02:54:22;10.30;;;5.13;;
14377;SDS011;7272;53.668;9.578;2023-03-31T02:57:58;8.73;;;4.90;;
14377;SDS011;7272;53.668;9.578;2023-03-31T03:01:23;8.60;;;4.33;;
14377;SDS011;7272;53.668;9.578;2023-03-31T03:04:50;12.48;;;5.90;;
14377;SDS011;7272;53.668;9.578;2023-03-31T03:08:06;12.77;;;5.50;;
14377;SDS011;7272;53.668;9.578;2023-03-31T03:11:15;9.40;;;4.17;;
14377;SDS011;7272;53.668;9.578;2023-03-31T03:14:25;11.07;;;4.43;;
14377;SDS011;7272;53.668;9.578;2023-03-31T03:17:32;9.63;;;5.10;;
14377;SDS011;7272;53.668;9.578;2023-03-31T03:20:37;10.80;;;4.33;;
14377;SDS011;7272;53.668;9.578;2023-03-31T03:23:40;9.07;;;4.50;;
14377;SDS011;7272;53.668;9.578;2023-03-31T03:26:42;11.63;;;4.50;;
14377;SDS011;7272;53.668;9.578;2023-03-31T03:29:45;10.33;;;4.70;;
14377;SDS011;7272;53.668;9.578;2023-03-31T03:32:48;10.93;;;4.60;;
14377;SDS011;7272;53.668;9.578;2023-03-31T03:35:50;11.13;;;5.10;;
14377;SDS011;7272;53.668;9.578;2023-03-31T03:38:52;12.53;;;4.77;;
14377;SDS011;7272;53.668;9.578;2023-03-31T03:41:54;12.40;;;5.07;;
14377;SDS011;7272;53.668;9.578;2023-03-31T03:44:55;7.93;;;4.67;;
14377;SDS011;7272;53.668;9.578;2023-03-31T03:47:59;9.52;;;5.90;;
14377;SDS011;7272;53.668;9.578;2023-03-31T03:51:01;8.60;;;4.90;;
14377;SDS011;7272;53.668;9.578;2023-03-31T03:54:03;8.73;;;4.43;;
14377;SDS011;7272;53.668;9.578;2023-03-31T03:57:05;13.03;;;5.53;;
14377;SDS011;7272;53.668;9.578;2023-03-31T04:00:07;8.63;;;4.13;;
14377;SDS011;7272;53.668;9.578;2023-03-31T04:03:13;11.57;;;5.63;;
14377;SDS011;7272;53.668;9.578;2023-03-31T04:06:15;11.43;;;5.40;;
14377;SDS011;7272;53.668;9.578;2023-03-31T04:09:17;15.63;;;5.40;;
14377;SDS011;7272;53.668;9.578;2023-03-31T04:12:19;11.20;;;5.60;;
14377;SDS011;7272;53.668;9.578;2023-03-31T04:15:21;9.93;;;5.63;;
14377;SDS011;7272;53.668;9.578;2023-03-31T04:18:24;14.47;;;5.93;;
14377;SDS011;7272;53.668;9.578;2023-03-31T04:21:26;11.03;;;6.07;;
14377;SDS011;7272;53.668;9.578;2023-03-31T04:24:29;11.43;;;6.13;;
14377;SDS011;7272;53.668;9.578;2023-03-31T04:27:32;14.50;;;6.13;;
14377;SDS011;7272;53.668;9.578;2023-03-31T04:30:34;10.80;;;5.63;;
14377;SDS011;7272;53.668;9.578;2023-03-31T04:33:40;12.83;;;6.10;;
14377;SDS011;7272;53.668;9.578;2023-03-31T04:36:45;11.67;;;7.13;;
14377;SDS011;7272;53.668;9.578;2023-03-31T04:39:47;12.13;;;6.37;;
14377;SDS011;7272;53.668;9.578;2023-03-31T04:42:50;9.80;;;6.00;;
14377;SDS011;7272;53.668;9.578;2023-03-31T04:45:52;9.10;;;5.83;;
14377;SDS011;7272;53.668;9.578;2023-03-31T04:48:55;8.47;;;5.40;;
14377;SDS011;7272;53.668;9.578;2023-03-31T04:51:58;8.87;;;5.63;;
14377;SDS011;7272;53.668;9.578;2023-03-31T04:55:00;9.17;;;6.20;;
14377;SDS011;7272;53.668;9.578;2023-03-31T04:58:02;13.57;;;6.63;;
14377;SDS011;7272;53.668;9.578;2023-03-31T05:01:04;12.73;;;6.60;;
14377;SDS011;7272;53.668;9.578;2023-03-31T05:04:07;10.90;;;6.80;;
14377;SDS011;7272;53.668;9.578;2023-03-31T05:07:09;11.63;;;7.70;;
14377;SDS011;7272;53.668;9.578;2023-03-31T05:10:11;8.60;;;6.93;;
14377;SDS011;7272;53.668;9.578;2023-03-31T05:13:14;9.20;;;6.70;;
14377;SDS011;7272;53.668;9.578;2023-03-31T05:16:16;13.40;;;6.30;;
14377;SDS011;7272;53.668;9.578;2023-03-31T05:19:19;11.23;;;6.13;;
14377;SDS011;7272;53.668;9.578;2023-03-31T05:22:21;11.47;;;6.57;;
14377;SDS011;7272;53.668;9.578;2023-03-31T05:25:23;11.43;;;6.47;;
14377;SDS011;7272;53.668;9.578;2023-03-31T05:28:25;10.37;;;6.90;;
14377;SDS011;7272;53.668;9.578;2023-03-31T05:31:27;7.97;;;5.90;;
14377;SDS011;7272;53.668;9.578;2023-03-31T05:34:31;10.47;;;6.50;;
14377;SDS011;7272;53.668;9.578;2023-03-31T05:37:32;8.30;;;6.47;;
14377;SDS011;7272;53.668;9.578;2023-03-31T05:40:34;10.60;;;6.37;;
14377;SDS011;7272;53.668;9.578;2023-03-31T05:43:36;11.73;;;6.13;;
14377;SDS011;7272;53.668;9.578;2023-03-31T05:46:39;10.63;;;7.37;;
14377;SDS011;7272;53.668;9.578;2023-03-31T05:49:42;11.17;;;7.63;;
14377;SDS011;7272;53.668;9.578;2023-03-31T05:52:45;9.97;;;7.17;;
14377;SDS011;7272;53.668;9.578;2023-03-31T05:55:47;12.10;;;6.10;;
14377;SDS011;7272;53.668;9.578;2023-03-31T05:58:48;8.70;;;5.40;;
14377;SDS011;7272;53.668;9.578;2023-03-31T06:01:51;11.20;;;6.97;;
14377;SDS011;7272;53.668;9.578;2023-03-31T06:04:54;9.73;;;6.40;;
14377;SDS011;7272;53.668;9.578;2023-03-31T06:07:56;9.87;;;5.90;;
14377;SDS011;7272;53.668;9.578;2023-03-31T06:10:58;7.90;;;5.43;;
14377;SDS011;7272;53.668;9.578;2023-03-31T06:14:00;8.23;;;5.50;;
14377;SDS011;7272;53.668;9.578;2023-03-31T06:17:02;9.33;;;5.27;;
14377;SDS011;7272;53.668;9.578;2023-03-31T06:20:06;8.27;;;5.40;;
14377;SDS011;7272;53.668;9.578;2023-03-31T06:23:08;7.93;;;5.57;;
14377;SDS011;7272;53.668;9.578;2023-03-31T06:26:11;10.07;;;5.23;;
14377;SDS011;7272;53.668;9.578;2023-03-31T06:29:14;9.30;;;5.40;;
14377;SDS011;7272;53.668;9.578;2023-03-31T06:32:16;10.33;;;5.80;;
14377;SDS011;7272;53.668;9.578;2023-03-31T06:35:19;8.03;;;4.67;;
14377;SDS011;7272;53.668;9.578;2023-03-31T06:38:21;7.87;;;5.37;;
14377;SDS011;7272;53.668;9.578;2023-03-31T06:41:23;8.23;;;5.27;;
14377;SDS011;7272;53.668;9.578;2023-03-31T06:44:25;8.37;;;4.87;;
14377;SDS011;7272;53.668;9.578;2023-03-31T06:47:27;6.57;;;5.17;;
14377;SDS011;7272;53.668;9.578;2023-03-31T06:50:30;9.30;;;6.60;;
14377;SDS011;7272;53.668;9.578;2023-03-31T06:53:33;8.50;;;5.70;;
14377;SDS011;7272;53.668;9.578;2023-03-31T06:56:35;10.87;;;5.70;;
14377;SDS011;7272;53.668;9.578;2023-03-31T06:59:37;9.17;;;5.43;;
14377;SDS011;7272;53.668;9.578;2023-03-31T07:02:39;11.13;;;6.07;;
14377;SDS011;7272;53.668;9.578;2023-03-31T07:05:42;8.33;;;5.90;;
14377;SDS011;7272;53.668;9.578;2023-03-31T07:08:49;10.20;;;5.53;;
14377;SDS011;7272;53.668;9.578;2023-03-31T07:11:50;7.50;;;5.63;;
14377;SDS011;7272;53.668;9.578;2023-03-31T07:14:52;9.83;;;6.80;;
14377;SDS011;7272;53.668;9.578;2023-03-31T07:17:55;7.07;;;5.97;;
14377;SDS011;7272;53.668;9.578;2023-03-31T07:21:02;7.20;;;5.93;;
14377;SDS011;7272;53.668;9.578;2023-03-31T07:24:06;9.80;;;6.83;;
14377;SDS011;7272;53.668;9.578;2023-03-31T07:27:08;9.67;;;6.67;;
14377;SDS011;7272;53.668;9.578;2023-03-31T07:30:11;11.30;;;8.55;;
14377;SDS011;7272;53.668;9.578;2023-03-31T07:33:15;9.43;;;7.18;;
14377;SDS011;7272;53.668;9.578;2023-03-31T07:36:18;9.03;;;7.13;;
14377;SDS011;7272;53.668;9.578;2023-03-31T07:39:20;9.03;;;6.80;;
14377;SDS011;7272;53.668;9.578;2023-03-31T07:42:22;7.67;;;6.97;;
14377;SDS011;7272;53.668;9.578;2023-03-31T07:45:25;9.47;;;7.07;;
14377;SDS011;7272;53.668;9.578;2023-03-31T07:48:27;7.80;;;7.00;;
14377;SDS011;7272;53.668;9.578;2023-03-31T07:51:30;8.43;;;7.30;;
14377;SDS011;7272;53.668;9.578;2023-03-31T07:54:33;8.13;;;7.07;;
14377;SDS011;7272;53.668;9.578;2023-03-31T07:57:35;7.97;;;7.10;;
14377;SDS011;7272;53.668;9.578;2023-03-31T08:00:37;9.07;;;7.67;;
14377;SDS011;7272;53.668;9.578;2023-03-31T08:03:40;8.97;;;8.07;;
14377;SDS011;7272;53.668;9.578;2023-03-31T08:06:43;9.97;;;8.07;;
14377;SDS011;7272;53.668;9.578;2023-03-31T08:09:45;9.10;;;7.30;;
14377;SDS011;7272;53.668;9.578;2023-03-31T08:12:47;8.00;;;7.20;;
14377;SDS011;7272;53.668;9.578;2023-03-31T08:15:49;7.80;;;7.03;;
14377;SDS011;7272;53.668;9.578;2023-03-31T08:18:51;10.40;;;9.02;;
14377;SDS011;7272;53.668;9.578;2023-03-31T08:21:54;8.70;;;7.80;;
14377;SDS011;7272;53.668;9.578;2023-03-31T08:24:56;9.23;;;7.07;;
14377;SDS011;7272;53.668;9.578;2023-03-31T08:27:58;8.27;;;7.17;;
14377;SDS011;7272;53.668;9.578;2023-03-31T08:31:01;7.50;;;6.80;;
14377;SDS011;7272;53.668;9.578;2023-03-31T08:34:05;7.10;;;6.40;;
14377;SDS011;7272;53.668;9.578;2023-03-31T08:37:08;8.93;;;6.77;;
14377;SDS011;7272;53.668;9.578;2023-03-31T08:40:12;6.67;;;6.03;;
14377;SDS011;7272;53.668;9.578;2023-03-31T08:43:24;6.90;;;6.20;;
14377;SDS011;7272;53.668;9.578;2023-03-31T08:46:30;6.73;;;6.10;;
14377;SDS011;7272;53.668;9.578;2023-03-31T08:49:36;7.13;;;6.10;;
14377;SDS011;7272;53.668;9.578;2023-03-31T08:52:44;7.90;;;6.37;;
14377;SDS011;7272;53.668;9.578;2023-03-31T08:55:50;7.30;;;6.60;;
14377;SDS011;7272;53.668;9.578;2023-03-31T08:58:53;7.53;;;6.17;;
14377;SDS011;7272;53.668;9.578;2023-03-31T09:02:04;7.90;;;6.97;;
14377;SDS011;7272;53.668;9.578;2023-03-31T09:05:21;8.10;;;6.30;;
14377;SDS011;7272;53.668;9.578;2023-03-31T09:08:41;5.97;;;5.13;;
14377;SDS011;7272;53.668;9.578;2023-03-31T09:11:45;5.80;;;5.30;;
14377;SDS011;7272;53.668;9.578;2023-03-31T09:14:51;6.00;;;5.50;;
14377;SDS011;7272;53.668;9.578;2023-03-31T09:17:59;5.80;;;5.20;;
14377;SDS011;7272;53.668;9.578;2023-03-31T09:21:10;8.07;;;6.10;;
14377;SDS011;7272;53.668;9.578;2023-03-31T09:24:18;6.37;;;5.77;;
14377;SDS011;7272;53.668;9.578;2023-03-31T09:27:24;6.27;;;5.50;;
14377;SDS011;7272;53.668;9.578;2023-03-31T09:30:31;6.00;;;5.40;;
14377;SDS011;7272;53.668;9.578;2023-03-31T09:33:35;6.27;;;5.67;;
14377;SDS011;7272;53.668;9.578;2023-03-31T09:36:42;6.33;;;4.43;;
14377;SDS011;7272;53.668;9.578;2023-03-31T09:39:46;6.93;;;6.20;;
14377;SDS011;7272;53.668;9.578;2023-03-31T09:42:49;6.15;;;5.50;;
14377;SDS011;7272;53.668;9.578;2023-03-31T09:45:55;5.63;;;4.87;;
14377;SDS011;7272;53.668;9.578;2023-03-31T09:48:58;6.43;;;4.50;;
14377;SDS011;7272;53.668;9.578;2023-03-31T09:52:06;6.63;;;4.90;;
14377;SDS011;7272;53.668;9.578;2023-03-31T09:55:19;6.40;;;5.07;;
14377;SDS011;7272;53.668;9.578;2023-03-31T09:58:23;5.60;;;4.97;;
14377;SDS011;7272;53.668;9.578;2023-03-31T10:01:25;6.23;;;5.00;;
14377;SDS011;7272;53.668;9.578;2023-03-31T10:04:28;5.80;;;5.30;;
14377;SDS011;7272;53.668;9.578;2023-03-31T10:07:33;5.20;;;4.70;;
14377;SDS011;7272;53.668;9.578;2023-03-31T10:10:36;5.90;;;4.30;;
14377;SDS011;7272;53.668;9.578;2023-03-31T10:13:41;4.77;;;4.17;;
14377;SDS011;7272;53.668;9.578;2023-03-31T10:16:47;4.90;;;3.93;;
14377;SDS011;7272;53.668;9.578;2023-03-31T10:19:51;4.70;;;4.30;;
14377;SDS011;7272;53.668;9.578;2023-03-31T10:22:54;5.32;;;4.93;;
14377;SDS011;7272;53.668;9.578;2023-03-31T10:25:58;5.40;;;5.00;;
14377;SDS011;7272;53.668;9.578;2023-03-31T10:29:00;4.27;;;3.87;;
14377;SDS011;7272;53.668;9.578;2023-03-31T10:32:07;4.20;;;3.90;;
14377;SDS011;7272;53.668;9.578;2023-03-31T10:35:14;4.33;;;3.97;;
14377;SDS011;7272;53.668;9.578;2023-03-31T10:38:25;4.60;;;4.20;;
14377;SDS011;7272;53.668;9.578;2023-03-31T10:41:31;4.70;;;4.20;;
14377;SDS011;7272;53.668;9.578;2023-03-31T10:44:34;4.13;;;3.83;;
14377;SDS011;7272;53.668;9.578;2023-03-31T10:47:38;4.00;;;3.70;;
14377;SDS011;7272;53.668;9.578;2023-03-31T10:50:41;4.27;;;3.90;;
14377;SDS011;7272;53.668;9.578;2023-03-31T10:53:45;3.93;;;3.63;;
14377;SDS011;7272;53.668;9.578;2023-03-31T10:56:51;4.03;;;3.60;;
14377;SDS011;7272;53.668;9.578;2023-03-31T11:00:10;4.13;;;3.17;;
14377;SDS011;7272;53.668;9.578;2023-03-31T11:03:31;4.30;;;3.90;;
14377;SDS011;7272;53.668;9.578;2023-03-31T11:06:46;3.87;;;3.37;;
14377;SDS011;7272;53.668;9.578;2023-03-31T11:10:00;3.77;;;3.47;;
14377;SDS011;7272;53.668;9.578;2023-03-31T11:13:12;3.90;;;3.60;;
14377;SDS011;7272;53.668;9.578;2023-03-31T11:16:22;3.67;;;3.37;;
14377;SDS011;7272;53.668;9.578;2023-03-31T11:19:34;4.30;;;3.73;;
14377;SDS011;7272;53.668;9.578;2023-03-31T11:22:45;4.03;;;3.70;;
14377;SDS011;7272;53.668;9.578;2023-03-31T11:25:55;4.50;;;4.10;;
14377;SDS011;7272;53.668;9.578;2023-03-31T11:29:07;4.37;;;3.90;;
14377;SDS011;7272;53.668;9.578;2023-03-31T11:32:26;4.00;;;3.40;;
14377;SDS011;7272;53.668;9.578;2023-03-31T11:35:38;4.00;;;3.70;;
14377;SDS011;7272;53.668;9.578;2023-03-31T11:38:56;3.80;;;3.50;;
14377;SDS011;7272;53.668;9.578;2023-03-31T11:42:11;4.27;;;3.30;;
14377;SDS011;7272;53.668;9.578;2023-03-31T11:45:18;4.67;;;4.27;;
14377;SDS011;7272;53.668;9.578;2023-03-31T11:48:25;4.90;;;3.70;;
14377;SDS011;7272;53.668;9.578;2023-03-31T11:51:38;3.73;;;3.43;;
14377;SDS011;7272;53.668;9.578;2023-03-31T11:54:45;3.30;;;3.07;;
14377;SDS011;7272;53.668;9.578;2023-03-31T11:57:57;4.13;;;3.43;;
14377;SDS011;7272;53.668;9.578;2023-03-31T12:01:07;3.50;;;3.20;;
14377;SDS011;7272;53.668;9.578;2023-03-31T12:04:19;3.13;;;2.83;;
14377;SDS011;7272;53.668;9.578;2023-03-31T12:07:30;2.63;;;2.43;;
14377;SDS011;7272;53.668;9.578;2023-03-31T12:10:34;3.37;;;2.80;;
14377;SDS011;7272;53.668;9.578;2023-03-31T12:13:40;2.70;;;2.50;;
14377;SDS011;7272;53.668;9.578;2023-03-31T12:16:48;2.63;;;2.43;;
14377;SDS011;7272;53.668;9.578;2023-03-31T12:19:53;3.33;;;2.50;;
14377;SDS011;7272;53.668;9.578;2023-03-31T12:22:58;3.17;;;2.50;;
14377;SDS011;7272;53.668;9.578;2023-03-31T12:26:04;4.67;;;3.13;;
14377;SDS011;7272;53.668;9.578;2023-03-31T12:29:13;3.30;;;3.00;;
14377;SDS011;7272;53.668;9.578;2023-03-31T12:32:25;3.70;;;2.90;;
14377;SDS011;7272;53.668;9.578;2023-03-31T12:35:32;3.07;;;2.87;;
14377;SDS011;7272;53.668;9.578;2023-03-31T12:38:49;3.03;;;2.70;;
14377;SDS011;7272;53.668;9.578;2023-03-31T12:42:02;3.03;;;2.77;;
14377;SDS011;7272;53.668;9.578;2023-03-31T12:45:23;4.17;;;2.73;;
14377;SDS011;7272;53.668;9.578;2023-03-31T12:48:36;3.90;;;3.10;;
14377;SDS011;7272;53.668;9.578;2023-03-31T12:51:53;3.67;;;2.83;;
14377;SDS011;7272;53.668;9.578;2023-03-31T12:55:09;3.90;;;3.03;;
14377;SDS011;7272;53.668;9.578;2023-03-31T12:58:35;5.30;;;3.50;;
14377;SDS011;7272;53.668;9.578;2023-03-31T13:01:53;3.57;;;3.23;;
14377;SDS011;7272;53.668;9.578;2023-03-31T13:08:51;4.20;;;3.80;;
14377;SDS011;7272;53.668;9.578;2023-03-31T13:11:55;4.60;;;3.70;;
14377;SDS011;7272;53.668;9.578;2023-03-31T13:14:57;4.60;;;3.60;;
14377;SDS011;7272;53.668;9.578;2023-03-31T13:18:00;4.40;;;4.00;;
14377;SDS011;7272;53.668;9.578;2023-03-31T13:21:05;4.37;;;3.97;;
14377;SDS011;7272;53.668;9.578;2023-03-31T13:24:08;5.17;;;4.13;;
14377;SDS011;7272;53.668;9.578;2023-03-31T13:27:26;4.17;;;3.87;;
14377;SDS011;7272;53.668;9.578;2023-03-31T13:30:49;5.50;;;4.40;;
14377;SDS011;7272;53.668;9.578;2023-03-31T13:33:56;4.83;;;3.57;;
14377;SDS011;7272;53.668;9.578;2023-03-31T13:37:06;5.53;;;4.07;;
14377;SDS011;7272;53.668;9.578;2023-03-31T13:40:21;5.07;;;4.20;;
14377;SDS011;7272;53.668;9.578;2023-03-31T13:43:43;5.35;;;4.85;;
14377;SDS011;7272;53.668;9.578;2023-03-31T13:47:03;5.13;;;4.68;;
14377;SDS011;7272;53.668;9.578;2023-03-31T13:50:38;3.90;;;3.60;;
14377;SDS011;7272;53.668;9.578;2023-03-31T13:53:59;4.87;;;4.10;;
14377;SDS011;7272;53.668;9.578;2023-03-31T13:57:26;4.63;;;4.17;;
14377;SDS011;7272;53.668;9.578;2023-03-31T14:00:51;4.13;;;3.83;;
14377;SDS011;7272;53.668;9.578;2023-03-31T14:04:22;4.03;;;3.63;;
14377;SDS011;7272;53.668;9.578;2023-03-31T14:07:42;4.60;;;4.00;;
14377;SDS011;7272;53.668;9.578;2023-03-31T14:10:48;4.17;;;3.50;;
14377;SDS011;7272;53.668;9.578;2023-03-31T14:14:03;3.57;;;3.27;;
14377;SDS011;7272;53.668;9.578;2023-03-31T14:17:07;3.93;;;3.70;;
14377;SDS011;7272;53.668;9.578;2023-03-31T14:20:22;4.00;;;3.60;;
14377;SDS011;7272;53.668;9.578;2023-03-31T14:23:32;4.78;;;4.40;;
14377;SDS011;7272;53.668;9.578;2023-03-31T14:26:46;5.45;;;4.95;;
14377;SDS011;7272;53.668;9.578;2023-03-31T14:29:56;6.03;;;4.20;;
14377;SDS011;7272;53.668;9.578;2023-03-31T14:33:08;4.27;;;3.97;;
14377;SDS011;7272;53.668;9.578;2023-03-31T14:36:20;4.50;;;4.10;;
14377;SDS011;7272;53.668;9.578;2023-03-31T14:39:29;5.00;;;4.60;;
14377;SDS011;7272;53.668;9.578;2023-03-31T14:42:36;4.00;;;3.70;;
14377;SDS011;7272;53.668;9.578;2023-03-31T14:45:39;4.30;;;3.90;;
14377;SDS011;7272;53.668;9.578;2023-03-31T14:48:44;4.10;;;3.70;;
14377;SDS011;7272;53.668;9.578;2023-03-31T14:51:46;5.60;;;4.97;;
14377;SDS011;7272;53.668;9.578;2023-03-31T14:54:49;4.83;;;4.53;;
14377;SDS011;7272;53.668;9.578;2023-03-31T14:57:54;4.40;;;4.10;;
14377;SDS011;7272;53.668;9.578;2023-03-31T15:00:58;5.33;;;4.93;;
14377;SDS011;7272;53.668;9.578;2023-03-31T15:04:03;3.87;;;3.67;;
14377;SDS011;7272;53.668;9.578;2023-03-31T15:07:09;4.33;;;4.03;;
14377;SDS011;7272;53.668;9.578;2023-03-31T15:10:11;3.80;;;3.47;;
14377;SDS011;7272;53.668;9.578;2023-03-31T15:13:21;4.40;;;4.00;;
14377;SDS011;7272;53.668;9.578;2023-03-31T15:16:30;3.97;;;3.67;;
14377;SDS011;7272;53.668;9.578;2023-03-31T15:19:35;4.37;;;4.07;;
14377;SDS011;7272;53.668;9.578;2023-03-31T15:22:37;4.20;;;4.00;;
14377;SDS011;7272;53.668;9.578;2023-03-31T15:25:39;4.70;;;4.33;;
14377;SDS011;7272;53.668;9.578;2023-03-31T15:28:47;4.83;;;4.53;;
14377;SDS011;7272;53.668;9.578;2023-03-31T15:31:54;4.60;;;4.20;;
14377;SDS011;7272;53.668;9.578;2023-03-31T15:34:57;4.40;;;4.10;;
14377;SDS011;7272;53.668;9.578;2023-03-31T15:38:00;5.03;;;4.73;;
14377;SDS011;7272;53.668;9.578;2023-03-31T15:41:09;4.33;;;3.93;;
14377;SDS011;7272;53.668;9.578;2023-03-31T15:44:27;5.38;;;5.07;;
14377;SDS011;7272;53.668;9.578;2023-03-31T15:47:35;3.90;;;3.70;;
14377;SDS011;7272;53.668;9.578;2023-03-31T15:50:38;4.20;;;3.73;;
14377;SDS011;7272;53.668;9.578;2023-03-31T15:53:42;4.10;;;3.83;;
14377;SDS011;7272;53.668;9.578;2023-03-31T15:56:45;4.70;;;4.23;;
14377;SDS011;7272;53.668;9.578;2023-03-31T15:59:49;3.80;;;3.50;;
14377;SDS011;7272;53.668;9.578;2023-03-31T16:02:55;6.03;;;5.53;;
14377;SDS011;7272;53.668;9.578;2023-03-31T16:05:57;5.07;;;4.77;;
14377;SDS011;7272;53.668;9.578;2023-03-31T16:09:04;4.97;;;4.67;;
14377;SDS011;7272;53.668;9.578;2023-03-31T16:12:12;4.00;;;3.73;;
14377;SDS011;7272;53.668;9.578;2023-03-31T16:15:20;3.90;;;3.70;;
14377;SDS011;7272;53.668;9.578;2023-03-31T16:18:31;4.00;;;3.70;;
14377;SDS011;7272;53.668;9.578;2023-03-31T16:21:36;4.17;;;3.87;;
14377;SDS011;7272;53.668;9.578;2023-03-31T16:24:40;3.77;;;3.47;;
14377;SDS011;7272;53.668;9.578;2023-03-31T16:27:44;4.27;;;3.97;;
14377;SDS011;7272;53.668;9.578;2023-03-31T16:30:49;4.10;;;3.83;;
14377;SDS011;7272;53.668;9.578;2023-03-31T16:33:51;4.00;;;3.80;;
14377;SDS011;7272;53.668;9.578;2023-03-31T16:36:55;4.13;;;3.83;;
14377;SDS011;7272;53.668;9.578;2023-03-31T16:39:57;3.90;;;3.70;;
14377;SDS011;7272;53.668;9.578;2023-03-31T16:43:05;3.90;;;3.70;;
14377;SDS011;7272;53.668;9.578;2023-03-31T16:46:10;4.17;;;3.87;;
14377;SDS011;7272;53.668;9.578;2023-03-31T16:49:12;4.30;;;4.00;;
14377;SDS011;7272;53.668;9.578;2023-03-31T16:52:14;3.67;;;3.47;;
14377;SDS011;7272;53.668;9.578;2023-03-31T16:55:16;5.13;;;4.73;;
14377;SDS011;7272;53.668;9.578;2023-03-31T16:58:18;5.03;;;4.68;;
14377;SDS011;7272;53.668;9.578;2023-03-31T17:01:21;4.50;;;4.20;;
14377;SDS011;7272;53.668;9.578;2023-03-31T17:04:23;4.10;;;3.90;;
14377;SDS011;7272;53.668;9.578;2023-03-31T17:07:25;4.20;;;3.90;;
14377;SDS011;7272;53.668;9.578;2023-03-31T17:10:27;4.50;;;4.10;;
14377;SDS011;7272;53.668;9.578;2023-03-31T17:13:30;4.03;;;3.73;;
14377;SDS011;7272;53.668;9.578;2023-03-31T17:16:34;4.73;;;4.43;;
14377;SDS011;7272;53.668;9.578;2023-03-31T17:19:36;4.50;;;4.20;;
14377;SDS011;7272;53.668;9.578;2023-03-31T17:22:37;4.37;;;4.07;;
14377;SDS011;7272;53.668;9.578;2023-03-31T17:25:45;4.20;;;3.90;;
14377;SDS011;7272;53.668;9.578;2023-03-31T17:28:47;4.23;;;3.77;;
14377;SDS011;7272;53.668;9.578;2023-03-31T17:31:51;4.00;;;3.77;;
14377;SDS011;7272;53.668;9.578;2023-03-31T17:34:53;3.77;;;3.57;;
14377;SDS011;7272;53.668;9.578;2023-03-31T17:37:54;4.78;;;4.47;;
14377;SDS011;7272;53.668;9.578;2023-03-31T17:41:00;3.83;;;3.63;;
14377;SDS011;7272;53.668;9.578;2023-03-31T17:44:03;3.80;;;3.50;;
14377;SDS011;7272;53.668;9.578;2023-03-31T17:47:08;4.10;;;3.90;;
14377;SDS011;7272;53.668;9.578;2023-03-31T17:50:10;4.30;;;4.00;;
14377;SDS011;7272;53.668;9.578;2023-03-31T17:53:13;4.23;;;4.03;;
14377;SDS011;7272;53.668;9.578;2023-03-31T17:56:15;4.77;;;4.37;;
14377;SDS011;7272;53.668;9.578;2023-03-31T17:59:17;4.63;;;4.30;;
14377;SDS011;7272;53.668;9.578;2023-03-31T18:02:21;4.83;;;4.53;;
14377;SDS011;7272;53.668;9.578;2023-03-31T18:05:24;4.27;;;3.97;;
14377;SDS011;7272;53.668;9.578;2023-03-31T18:08:26;4.43;;;4.10;;
14377;SDS011;7272;53.668;9.578;2023-03-31T18:11:28;4.53;;;4.23;;
14377;SDS011;7272;53.668;9.578;2023-03-31T18:14:30;6.43;;;5.93;;
14377;SDS011;7272;53.668;9.578;2023-03-31T18:17:34;4.70;;;4.47;;
14377;SDS011;7272;53.668;9.578;2023-03-31T18:20:35;5.07;;;4.60;;
14377;SDS011;7272;53.668;9.578;2023-03-31T18:23:38;5.30;;;4.90;;
14377;SDS011;7272;53.668;9.578;2023-03-31T18:26:41;4.90;;;4.50;;
14377;SDS011;7272;53.668;9.578;2023-03-31T18:29:43;5.07;;;4.77;;
14377;SDS011;7272;53.668;9.578;2023-03-31T18:32:47;5.53;;;5.00;;
14377;SDS011;7272;53.668;9.578;2023-03-31T18:35:49;5.33;;;4.93;;
14377;SDS011;7272;53.668;9.578;2023-03-31T18:38:52;4.47;;;4.17;;
14377;SDS011;7272;53.668;9.578;2023-03-31T18:41:54;5.40;;;5.00;;
14377;SDS011;7272;53.668;9.578;2023-03-31T18:44:57;8.20;;;6.57;;
14377;SDS011;7272;53.668;9.578;2023-03-31T18:48:00;7.70;;;7.10;;
14377;SDS011;7272;53.668;9.578;2023-03-31T18:51:02;6.47;;;5.87;;
14377;SDS011;7272;53.668;9.578;2023-03-31T18:54:05;8.00;;;7.40;;
14377;SDS011;7272;53.668;9.578;2023-03-31T18:57:07;6.00;;;5.47;;
14377;SDS011;7272;53.668;9.578;2023-03-31T19:00:10;6.10;;;5.50;;